createdAt,value
2022-12-28T00:01:23.755Z,2.03
2022-12-28T00:03:52.365Z,1.80
2022-12-28T00:06:23.515Z,2.00
2022-12-28T00:08:53.929Z,1.93
2022-12-28T00:11:27.837Z,2.03
2022-12-28T00:14:00.262Z,1.97
2022-12-28T00:16:30.933Z,2.60
2022-12-28T00:19:00.563Z,1.90
2022-12-28T00:21:30.520Z,2.00
2022-12-28T00:23:59.833Z,1.53
2022-12-28T00:26:29.248Z,1.80
2022-12-28T00:29:04.225Z,2.03
2022-12-28T00:31:33.523Z,1.80
2022-12-28T00:34:01.738Z,1.90
2022-12-28T00:37:08.254Z,2.20
2022-12-28T00:39:19.949Z,1.60
2022-12-28T00:41:48.316Z,1.67
2022-12-28T00:44:16.353Z,1.80
2022-12-28T00:46:44.324Z,1.67
2022-12-28T00:49:12.319Z,1.70
2022-12-28T00:51:41.716Z,1.97
2022-12-28T00:54:09.770Z,2.00
2022-12-28T00:56:37.765Z,2.00
2022-12-28T00:59:05.733Z,1.83
2022-12-28T01:01:33.816Z,1.93
2022-12-28T01:04:01.944Z,1.77
2022-12-28T01:06:30.594Z,1.57
2022-12-28T01:09:00.758Z,2.17
2022-12-28T01:11:32.130Z,1.47
2022-12-28T01:14:02.819Z,2.13
2022-12-28T01:16:33.775Z,1.90
2022-12-28T01:19:04.711Z,1.90
2022-12-28T01:21:34.750Z,1.90
2022-12-28T01:24:05.975Z,2.00
2022-12-28T01:26:34.157Z,2.23
2022-12-28T01:29:02.606Z,1.90
2022-12-28T01:31:30.634Z,2.60
2022-12-28T01:33:58.648Z,2.33
2022-12-28T01:36:28.288Z,1.90
2022-12-28T01:38:58.289Z,1.90
2022-12-28T01:41:29.684Z,1.53
2022-12-28T01:44:34.801Z,1.90
2022-12-28T01:47:05.574Z,2.20
2022-12-28T01:49:38.014Z,1.67
2022-12-28T01:52:09.450Z,1.70
2022-12-28T01:54:42.271Z,1.50
2022-12-28T01:57:12.394Z,1.60
2022-12-28T01:59:43.545Z,1.83
2022-12-28T02:02:13.400Z,1.93
2022-12-28T02:04:41.802Z,1.50
2022-12-28T02:07:10.314Z,2.07
2022-12-28T02:09:42.358Z,1.57
2022-12-28T02:12:15.900Z,1.43
2022-12-28T02:14:45.511Z,1.70
2022-12-28T02:17:14.716Z,1.60
2022-12-28T02:19:46.477Z,1.63
2022-12-28T02:22:40.903Z,1.50
2022-12-28T02:25:44.989Z,1.30
2022-12-28T02:28:28.898Z,1.27
2022-12-28T02:31:07.658Z,1.87
2022-12-28T02:33:41.186Z,2.10
2022-12-28T02:36:18.735Z,1.70
2022-12-28T02:38:52.699Z,1.50
2022-12-28T02:41:23.761Z,1.60
2022-12-28T02:43:52.072Z,2.03
2022-12-28T02:46:41.577Z,1.60
2022-12-28T02:49:38.141Z,1.30
2022-12-28T02:52:16.096Z,1.33
2022-12-28T02:55:27.909Z,1.63
2022-12-28T02:58:17.288Z,1.53
2022-12-28T03:00:57.463Z,1.60
2022-12-28T03:03:35.176Z,1.40
2022-12-28T03:06:31.917Z,1.87
2022-12-28T03:09:08.063Z,1.87
2022-12-28T03:11:42.549Z,1.40
2022-12-28T03:14:15.971Z,1.33
2022-12-28T03:17:04.663Z,1.53
2022-12-28T03:19:57.144Z,1.60
2022-12-28T03:22:44.050Z,1.33
2022-12-28T03:25:33.591Z,2.20
2022-12-28T03:28:24.373Z,1.17
2022-12-28T03:31:05.911Z,1.40
2022-12-28T03:33:35.615Z,1.27
2022-12-28T03:36:11.579Z,1.30
2022-12-28T03:38:48.472Z,1.57
2022-12-28T03:41:20.304Z,1.17
2022-12-28T03:43:50.714Z,1.07
2022-12-28T03:46:23.512Z,1.53
2022-12-28T03:48:53.000Z,1.20
2022-12-28T03:51:24.846Z,1.27
2022-12-28T03:53:53.509Z,0.97
2022-12-28T03:56:23.473Z,1.53
2022-12-28T03:58:51.496Z,1.37
2022-12-28T04:01:19.670Z,1.40
2022-12-28T04:03:47.979Z,1.20
2022-12-28T04:06:17.268Z,1.50
2022-12-28T04:08:47.701Z,1.27
2022-12-28T04:11:15.996Z,1.60
2022-12-28T04:13:44.405Z,1.50
2022-12-28T04:16:15.335Z,1.53
2022-12-28T04:18:44.093Z,1.50
2022-12-28T04:21:13.151Z,1.20
2022-12-28T04:23:41.253Z,1.20
2022-12-28T04:26:12.930Z,1.50
2022-12-28T04:28:41.623Z,1.30
2022-12-28T04:31:12.624Z,1.67
2022-12-28T04:33:41.320Z,1.30
2022-12-28T04:36:12.446Z,1.03
2022-12-28T04:38:40.745Z,1.30
2022-12-28T04:41:11.786Z,1.23
2022-12-28T04:43:40.300Z,1.30
2022-12-28T04:46:12.112Z,1.73
2022-12-28T04:48:40.744Z,1.37
2022-12-28T04:51:10.373Z,1.10
2022-12-28T04:53:39.140Z,1.13
2022-12-28T04:56:08.249Z,0.80
2022-12-28T04:58:38.488Z,1.03
2022-12-28T05:01:08.210Z,1.13
2022-12-28T05:03:36.684Z,0.83
2022-12-28T05:06:07.566Z,1.40
2022-12-28T05:08:36.575Z,0.97
2022-12-28T05:11:06.582Z,0.90
2022-12-28T05:13:35.101Z,0.80
2022-12-28T05:16:06.106Z,1.23
2022-12-28T05:18:34.599Z,1.03
2022-12-28T05:21:03.584Z,1.00
2022-12-28T05:23:32.087Z,1.03
2022-12-28T05:26:00.318Z,1.00
2022-12-28T05:28:28.823Z,1.23
2022-12-28T05:31:00.937Z,0.93
2022-12-28T05:33:31.899Z,1.10
2022-12-28T05:36:04.489Z,0.97
2022-12-28T05:38:32.852Z,1.00
2022-12-28T05:41:06.338Z,0.80
2022-12-28T05:43:34.617Z,0.97
2022-12-28T05:46:04.315Z,0.80
2022-12-28T05:48:34.881Z,0.90
2022-12-28T05:51:04.241Z,0.70
2022-12-28T05:53:33.176Z,0.80
2022-12-28T05:56:08.256Z,0.90
2022-12-28T05:58:39.061Z,0.67
2022-12-28T06:01:08.921Z,1.00
2022-12-28T06:03:38.768Z,0.63
2022-12-28T06:06:08.924Z,0.90
2022-12-28T06:08:37.759Z,0.80
2022-12-28T06:11:08.313Z,0.87
2022-12-28T06:13:36.961Z,0.90
2022-12-28T06:16:09.264Z,1.00
2022-12-28T06:18:38.924Z,0.90
2022-12-28T06:21:08.740Z,1.10
2022-12-28T06:23:37.297Z,0.80
2022-12-28T06:26:08.128Z,0.70
2022-12-28T06:28:39.094Z,0.93
2022-12-28T06:31:09.663Z,0.70
2022-12-28T06:33:39.333Z,1.47
2022-12-28T06:36:19.440Z,0.70
2022-12-28T06:38:48.668Z,0.80
2022-12-28T06:41:18.057Z,0.63
2022-12-28T06:43:47.004Z,0.73
2022-12-28T06:46:16.228Z,0.47
2022-12-28T06:48:45.709Z,0.83
2022-12-28T06:51:15.920Z,0.73
2022-12-28T06:53:44.354Z,0.70
2022-12-28T06:56:14.737Z,0.73
2022-12-28T06:58:43.472Z,1.10
2022-12-28T07:01:13.984Z,0.60
2022-12-28T07:03:42.516Z,0.90
2022-12-28T07:06:13.234Z,0.60
2022-12-28T07:08:41.778Z,0.77
2022-12-28T07:11:11.571Z,0.60
2022-12-28T07:13:39.900Z,1.23
2022-12-28T07:16:11.796Z,0.70
2022-12-28T07:18:40.687Z,0.70
2022-12-28T07:21:12.372Z,0.93
2022-12-28T07:23:40.546Z,0.90
2022-12-28T07:26:10.698Z,0.63
2022-12-28T07:28:39.366Z,0.90
2022-12-28T07:31:08.458Z,0.87
2022-12-28T07:33:37.919Z,0.70
2022-12-28T07:36:07.406Z,1.00
2022-12-28T07:38:37.259Z,1.00
2022-12-28T07:41:06.503Z,0.70
2022-12-28T07:43:34.877Z,0.60
2022-12-28T07:46:04.347Z,0.50
2022-12-28T07:48:32.858Z,0.83
2022-12-28T07:51:07.919Z,0.57
2022-12-28T07:53:37.880Z,1.00
2022-12-28T07:56:06.812Z,0.60
2022-12-28T07:58:35.285Z,1.17
2022-12-28T08:01:08.406Z,0.50
2022-12-28T08:03:37.260Z,0.87
2022-12-28T08:06:10.675Z,1.03
2022-12-28T08:08:41.294Z,0.80
2022-12-28T08:11:11.320Z,0.90
2022-12-28T08:13:40.968Z,0.97
2022-12-28T08:16:10.943Z,0.77
2022-12-28T08:18:39.228Z,0.80
2022-12-28T08:21:08.980Z,0.80
2022-12-28T08:23:37.021Z,1.00
2022-12-28T08:26:12.135Z,0.87
2022-12-28T08:28:41.076Z,0.80
2022-12-28T08:31:10.631Z,0.90
2022-12-28T08:33:38.998Z,0.97
2022-12-28T08:36:08.090Z,0.80
2022-12-28T08:38:36.729Z,0.97
2022-12-28T08:41:06.962Z,1.10
2022-12-28T08:43:36.485Z,0.80
2022-12-28T08:46:06.655Z,0.80
2022-12-28T08:48:35.973Z,0.80
2022-12-28T08:51:06.745Z,0.87
2022-12-28T08:53:35.498Z,1.00
2022-12-28T08:56:10.353Z,0.77
2022-12-28T08:58:40.168Z,0.87
2022-12-28T09:01:10.954Z,0.70
2022-12-28T09:03:39.870Z,0.87
2022-12-28T09:06:09.117Z,0.90
2022-12-28T09:08:37.750Z,0.97
2022-12-28T09:11:07.661Z,1.00
2022-12-28T09:13:36.113Z,0.90
2022-12-28T09:16:07.725Z,0.97
2022-12-28T09:18:36.969Z,1.10
2022-12-28T09:21:09.763Z,1.00
2022-12-28T09:23:38.475Z,0.77
2022-12-28T09:26:07.598Z,0.90
2022-12-28T09:28:36.143Z,1.10
2022-12-28T09:31:07.815Z,0.73
2022-12-28T09:36:44.523Z,0.73
2022-12-28T09:39:14.573Z,1.00
2022-12-28T09:41:48.204Z,0.80
2022-12-28T09:44:56.176Z,0.60
2022-12-28T09:47:31.662Z,0.77
2022-12-28T09:50:12.708Z,0.80
2022-12-28T09:52:49.892Z,0.80
2022-12-28T09:55:20.247Z,0.90
2022-12-28T09:57:52.685Z,0.50
2022-12-28T10:00:23.700Z,0.80
2022-12-28T10:02:56.449Z,0.70
2022-12-28T10:05:24.658Z,0.83
2022-12-28T10:07:55.271Z,0.80
2022-12-28T10:10:25.228Z,2.73
2022-12-28T10:12:53.602Z,1.33
2022-12-28T10:15:27.700Z,0.90
2022-12-28T10:17:57.099Z,0.90
2022-12-28T10:20:25.106Z,0.70
2022-12-28T10:22:56.838Z,1.43
2022-12-28T10:25:27.012Z,1.17
2022-12-28T10:27:55.909Z,1.10
2022-12-28T10:30:26.956Z,0.80
2022-12-28T10:33:03.134Z,1.00
2022-12-28T10:35:38.397Z,1.00
2022-12-28T10:38:09.017Z,0.77
2022-12-28T10:40:40.004Z,0.90
2022-12-28T10:43:11.128Z,1.07
2022-12-28T10:45:43.110Z,1.10
2022-12-28T10:48:19.077Z,0.97
2022-12-28T10:50:53.285Z,0.90
2022-12-28T10:53:27.300Z,1.00
2022-12-28T10:56:24.168Z,0.77
2022-12-28T10:58:54.692Z,1.20
2022-12-28T11:01:27.515Z,1.27
2022-12-28T11:04:06.510Z,1.00
2022-12-28T11:06:36.178Z,0.80
2022-12-28T11:09:16.865Z,0.80
2022-12-28T11:11:47.977Z,0.80
2022-12-28T11:14:26.142Z,1.00
2022-12-28T11:16:54.373Z,1.00
2022-12-28T11:19:25.500Z,1.10
2022-12-28T11:21:54.005Z,1.13
2022-12-28T11:24:27.126Z,1.13
2022-12-28T11:26:55.221Z,1.10
2022-12-28T11:29:23.213Z,0.90
2022-12-28T11:31:57.496Z,1.03
2022-12-28T11:34:29.390Z,1.10
2022-12-28T11:36:57.699Z,1.20
2022-12-28T11:39:44.956Z,1.03
2022-12-28T11:42:41.485Z,1.20
2022-12-28T11:45:14.896Z,1.30
2022-12-28T11:47:43.113Z,1.27
2022-12-28T11:50:48.574Z,0.90
2022-12-28T11:53:57.398Z,1.17
2022-12-28T11:56:26.545Z,0.90
2022-12-28T11:59:22.627Z,1.33
2022-12-28T12:01:56.307Z,1.20
2022-12-28T12:04:38.870Z,1.23
2022-12-28T12:07:47.435Z,1.20
2022-12-28T12:10:39.578Z,1.10
2022-12-28T12:13:50.357Z,1.10
2022-12-28T12:16:25.899Z,1.20
2022-12-28T12:18:56.765Z,1.03
2022-12-28T12:21:32.465Z,1.00
2022-12-28T12:24:10.935Z,0.90
2022-12-28T12:26:46.176Z,1.37
2022-12-28T12:29:17.793Z,1.63
2022-12-28T12:31:49.623Z,1.00
2022-12-28T12:34:24.885Z,1.50
2022-12-28T12:37:16.192Z,1.30
2022-12-28T12:39:57.670Z,1.30
2022-12-28T12:42:36.007Z,1.20
2022-12-28T12:45:13.147Z,1.10
2022-12-28T12:48:02.153Z,1.10
2022-12-28T12:50:47.663Z,1.10
2022-12-28T12:53:31.497Z,0.80
2022-12-28T12:56:08.714Z,1.07
2022-12-28T12:58:49.577Z,0.73
2022-12-28T13:01:30.038Z,1.00
2022-12-28T13:04:05.651Z,1.00
2022-12-28T13:06:39.460Z,1.07
2022-12-28T13:09:13.561Z,1.23
2022-12-28T13:11:41.655Z,1.10
2022-12-28T13:14:18.994Z,0.90
2022-12-28T13:16:49.651Z,1.10
2022-12-28T13:19:21.567Z,0.90
2022-12-28T13:21:51.387Z,0.80
2022-12-28T13:24:21.990Z,1.30
2022-12-28T13:26:50.215Z,1.00
2022-12-28T13:29:22.772Z,0.97
2022-12-28T13:31:51.607Z,0.90
2022-12-28T13:34:23.491Z,1.00
2022-12-28T13:36:54.383Z,1.00
2022-12-28T13:39:23.716Z,0.90
2022-12-28T13:41:53.636Z,0.90
2022-12-28T13:44:41.038Z,0.80
2022-12-28T13:47:14.922Z,1.00
2022-12-28T13:49:49.460Z,1.00
2022-12-28T13:52:23.095Z,1.07
2022-12-28T13:54:58.058Z,0.90
2022-12-28T13:57:46.812Z,1.10
2022-12-28T14:00:20.489Z,0.80
2022-12-28T14:02:51.409Z,1.00
2022-12-28T14:05:22.440Z,1.03
2022-12-28T14:07:51.561Z,0.90
2022-12-28T14:10:20.816Z,2.80
2022-12-28T14:12:49.543Z,1.67
2022-12-28T14:15:20.362Z,1.03
2022-12-28T14:17:50.605Z,1.03
2022-12-28T14:20:19.230Z,0.93
2022-12-28T14:22:47.597Z,0.93
2022-12-28T14:25:22.319Z,1.00
2022-12-28T14:27:58.538Z,1.00
2022-12-28T14:30:31.166Z,1.23
2022-12-28T14:33:07.110Z,0.70
2022-12-28T14:35:48.631Z,0.80
2022-12-28T14:38:20.201Z,0.80
2022-12-28T14:40:54.551Z,0.90
2022-12-28T14:43:26.151Z,1.10
2022-12-28T14:46:06.628Z,1.00
2022-12-28T14:48:40.336Z,1.00
2022-12-28T14:51:26.645Z,0.70
2022-12-28T14:54:18.777Z,0.93
2022-12-28T14:56:50.518Z,1.10
2022-12-28T14:59:24.974Z,1.10
2022-12-28T15:01:54.519Z,0.80
2022-12-28T15:04:36.649Z,1.10
2022-12-28T15:07:05.576Z,1.60
2022-12-28T15:09:33.621Z,1.10
2022-12-28T15:12:13.045Z,0.90
2022-12-28T15:14:41.018Z,1.20
2022-12-28T15:17:11.174Z,1.20
2022-12-28T15:19:39.420Z,1.67
2022-12-28T15:22:07.419Z,1.37
2022-12-28T15:24:35.549Z,0.90
2022-12-28T15:27:04.094Z,1.00
2022-12-28T15:30:04.280Z,1.27
2022-12-28T15:32:22.569Z,1.10
2022-12-28T15:34:51.015Z,1.00
2022-12-28T15:37:19.010Z,1.10
2022-12-28T15:39:47.010Z,1.20
2022-12-28T15:42:15.104Z,0.90
2022-12-28T15:44:43.098Z,1.40
2022-12-28T15:47:11.143Z,1.20
2022-12-28T15:49:40.557Z,1.10
2022-12-28T15:52:08.597Z,1.20
2022-12-28T15:54:36.629Z,1.03
2022-12-28T15:57:04.755Z,0.97
2022-12-28T15:59:32.772Z,1.00
2022-12-28T16:02:01.243Z,1.10
2022-12-28T16:04:29.412Z,1.30
2022-12-28T16:06:58.813Z,0.90
2022-12-28T16:09:26.785Z,1.13
2022-12-28T16:11:55.354Z,1.10
2022-12-28T16:14:23.786Z,1.30
2022-12-28T16:16:52.373Z,0.97
2022-12-28T16:19:20.780Z,1.13
2022-12-28T16:21:51.079Z,0.87
2022-12-28T16:24:20.895Z,0.90
2022-12-28T16:26:48.943Z,0.97
2022-12-28T16:29:16.944Z,1.20
2022-12-28T16:31:45.049Z,1.00
2022-12-28T16:34:15.373Z,0.80
2022-12-28T16:36:45.783Z,0.90
2022-12-28T16:39:15.785Z,0.97
2022-12-28T16:41:45.281Z,1.10
2022-12-28T16:44:15.716Z,1.20
2022-12-28T16:46:43.952Z,0.90
2022-12-28T16:49:12.500Z,0.83
2022-12-28T16:51:42.058Z,0.90
2022-12-28T16:54:13.007Z,0.87
2022-12-28T16:56:41.020Z,1.03
2022-12-28T16:59:13.927Z,1.10
2022-12-28T17:01:43.135Z,0.83
2022-12-28T17:04:11.867Z,1.53
2022-12-28T17:06:40.338Z,1.23
2022-12-28T17:09:08.890Z,1.00
2022-12-28T17:11:36.910Z,1.40
2022-12-28T17:14:06.962Z,1.10
2022-12-28T17:16:36.519Z,1.27
2022-12-28T17:19:05.290Z,1.60
2022-12-28T17:21:34.753Z,1.10
2022-12-28T17:24:02.833Z,1.10
2022-12-28T17:26:31.163Z,0.93
2022-12-28T17:28:59.444Z,1.10
2022-12-28T17:31:27.864Z,1.20
2022-12-28T17:34:00.326Z,1.37
2022-12-28T17:36:28.596Z,1.37
2022-12-28T17:38:56.737Z,1.00
2022-12-28T17:41:27.325Z,1.07
2022-12-28T17:43:56.881Z,1.10
2022-12-28T17:46:26.946Z,1.13
2022-12-28T17:48:55.644Z,1.03
2022-12-28T17:51:26.366Z,1.03
2022-12-28T17:53:56.640Z,1.00
2022-12-28T17:56:24.607Z,1.13
2022-12-28T17:58:55.986Z,1.07
2022-12-28T18:01:24.208Z,1.20
2022-12-28T18:03:52.534Z,1.10
2022-12-28T18:06:20.631Z,1.10
2022-12-28T18:08:50.366Z,0.97
2022-12-28T18:11:18.646Z,1.00
2022-12-28T18:13:47.918Z,1.17
2022-12-28T18:16:17.280Z,1.07
2022-12-28T18:18:45.707Z,1.03
2022-12-28T18:21:21.488Z,1.30
2022-12-28T18:23:53.252Z,1.20
2022-12-28T18:26:23.959Z,0.80
2022-12-28T18:28:52.016Z,1.30
2022-12-28T18:31:20.907Z,1.10
2022-12-28T18:33:49.206Z,1.17
2022-12-28T18:36:18.500Z,1.00
2022-12-28T18:38:48.262Z,1.10
2022-12-28T18:41:20.864Z,1.00
2022-12-28T18:43:49.435Z,1.07
2022-12-28T18:46:18.029Z,1.20
2022-12-28T18:48:46.144Z,1.20
2022-12-28T18:51:17.098Z,1.27
2022-12-28T18:53:45.489Z,1.13
2022-12-28T18:56:15.338Z,1.07
2022-12-28T18:58:45.537Z,1.07
2022-12-28T19:04:03.475Z,1.40
2022-12-28T19:06:32.764Z,1.20
2022-12-28T19:09:01.771Z,1.00
2022-12-28T19:11:30.267Z,1.03
2022-12-28T19:13:59.666Z,1.57
2022-12-28T19:16:31.564Z,1.03
2022-12-28T19:19:00.460Z,1.30
2022-12-28T19:21:30.850Z,1.10
2022-12-28T19:24:03.108Z,0.90
2022-12-28T19:26:32.574Z,1.13
2022-12-28T19:29:03.307Z,1.20
2022-12-28T19:31:31.959Z,0.90
2022-12-28T19:34:00.270Z,1.20
2022-12-28T19:36:28.293Z,1.20
2022-12-28T19:38:56.701Z,1.20
2022-12-28T19:41:34.494Z,1.10
2022-12-28T19:44:03.980Z,1.20
2022-12-28T19:46:32.503Z,1.20
2022-12-28T19:49:02.444Z,0.73
2022-12-28T19:51:32.210Z,0.90
2022-12-28T19:54:06.404Z,0.90
2022-12-28T19:56:34.676Z,0.97
2022-12-28T19:59:06.884Z,1.03
2022-12-28T20:01:36.708Z,1.20
2022-12-28T20:04:12.365Z,1.03
2022-12-28T20:06:42.126Z,1.00
2022-12-28T20:09:10.151Z,1.30
2022-12-28T20:11:38.442Z,0.97
2022-12-28T20:14:07.883Z,1.47
2022-12-28T20:16:36.878Z,1.50
2022-12-28T20:19:06.768Z,1.07
2022-12-28T20:21:35.815Z,1.10
2022-12-28T20:24:04.393Z,1.20
2022-12-28T20:26:33.582Z,0.90
2022-12-28T20:29:02.992Z,1.57
2022-12-28T20:31:32.438Z,1.07
2022-12-28T20:34:01.613Z,1.30
2022-12-28T20:36:31.039Z,1.10
2022-12-28T20:38:59.042Z,1.47
2022-12-28T20:41:46.282Z,1.00
2022-12-28T20:44:16.276Z,1.10
2022-12-28T20:46:46.377Z,1.20
2022-12-28T20:49:14.596Z,0.97
2022-12-28T20:51:43.153Z,1.20
2022-12-28T20:54:11.649Z,0.83
2022-12-28T20:56:41.835Z,1.00
2022-12-28T20:59:10.562Z,1.00
2022-12-28T21:01:39.671Z,1.10
2022-12-28T21:04:11.392Z,1.10
2022-12-28T21:06:39.503Z,1.00
2022-12-28T21:09:07.520Z,1.40
2022-12-28T21:11:35.589Z,1.37
2022-12-28T21:14:03.576Z,1.10
2022-12-28T21:16:31.669Z,1.30
2022-12-28T21:18:59.700Z,1.00
2022-12-28T21:21:29.096Z,0.97
2022-12-28T21:23:57.094Z,1.20
2022-12-28T21:26:25.720Z,1.20
2022-12-28T21:28:53.801Z,1.20
2022-12-28T21:31:21.848Z,1.20
2022-12-28T21:33:49.823Z,1.17
2022-12-28T21:36:19.116Z,1.10
2022-12-28T21:38:50.134Z,1.20
2022-12-28T21:41:41.387Z,1.07
2022-12-28T21:44:11.888Z,1.03
2022-12-28T21:46:40.268Z,1.13
2022-12-28T21:49:08.796Z,1.13
2022-12-28T21:51:39.244Z,1.07
2022-12-28T21:54:10.895Z,0.97
2022-12-28T21:56:39.562Z,1.00
2022-12-28T21:59:07.946Z,0.80
2022-12-28T22:01:54.885Z,1.27
2022-12-28T22:04:41.501Z,1.10
2022-12-28T22:07:11.732Z,1.07
2022-12-28T22:09:58.621Z,1.00
2022-12-28T22:12:36.908Z,1.30
2022-12-28T22:15:26.210Z,1.07
2022-12-28T22:17:56.171Z,1.10
2022-12-28T22:20:25.275Z,1.10
2022-12-28T22:22:56.343Z,1.00
2022-12-28T22:25:26.069Z,1.27
2022-12-28T22:27:54.177Z,1.30
2022-12-28T22:30:22.344Z,1.10
2022-12-28T22:32:50.364Z,1.40
2022-12-28T22:35:18.573Z,1.10
2022-12-28T22:37:46.585Z,1.27
2022-12-28T22:40:14.849Z,0.97
2022-12-28T22:42:44.785Z,1.40
2022-12-28T22:45:14.416Z,1.20
2022-12-28T22:47:42.999Z,1.07
2022-12-28T22:50:13.508Z,1.20
2022-12-28T22:52:41.730Z,1.40
2022-12-28T22:55:10.415Z,1.37
2022-12-28T22:57:38.602Z,1.10
2022-12-28T23:00:11.611Z,1.30
2022-12-28T23:02:39.763Z,1.10
2022-12-28T23:05:08.217Z,1.20
2022-12-28T23:07:38.432Z,1.20
2022-12-28T23:10:07.734Z,1.37
2022-12-28T23:12:35.715Z,1.43
2022-12-28T23:15:20.024Z,1.00
2022-12-28T23:17:49.951Z,1.13
2022-12-28T23:20:35.868Z,1.00
2022-12-28T23:23:21.550Z,1.20
2022-12-28T23:26:06.990Z,1.17
2022-12-28T23:28:36.044Z,1.17
2022-12-28T23:31:04.254Z,1.10
2022-12-28T23:33:33.659Z,1.33
2022-12-28T23:36:03.544Z,0.83
2022-12-28T23:38:32.424Z,1.00
2022-12-28T23:41:14.302Z,1.30
2022-12-28T23:43:42.374Z,1.33
2022-12-28T23:46:10.378Z,1.00
2022-12-28T23:48:39.791Z,1.00
2022-12-28T23:51:08.965Z,0.87
2022-12-28T23:53:37.180Z,1.20
2022-12-28T23:56:05.578Z,1.10
2022-12-28T23:58:33.567Z,1.20
